createdAt,value
2023-05-10T00:01:00.854Z,7.93
2023-05-10T00:04:42.715Z,8.65
2023-05-10T00:08:24.664Z,8.30
2023-05-10T00:12:06.790Z,7.80
2023-05-10T00:15:48.920Z,7.70
2023-05-10T00:19:30.980Z,8.85
2023-05-10T00:23:13.539Z,8.80
2023-05-10T00:26:55.512Z,9.70
2023-05-10T00:30:37.407Z,9.70
2023-05-10T00:34:19.509Z,10.68
2023-05-10T00:38:01.464Z,10.60
2023-05-10T00:41:43.343Z,9.48
2023-05-10T00:45:26.018Z,8.98
2023-05-10T00:49:08.142Z,8.80
2023-05-10T00:52:50.622Z,7.60
2023-05-10T00:56:33.193Z,6.88
2023-05-10T01:00:19.627Z,5.85
2023-05-10T01:04:02.104Z,4.43
2023-05-10T01:07:44.111Z,3.45
2023-05-10T01:11:26.278Z,3.78
2023-05-10T01:15:09.385Z,3.58
2023-05-10T01:18:52.202Z,3.55
2023-05-10T01:22:58.964Z,4.07
2023-05-10T01:26:46.896Z,3.53
2023-05-10T01:30:55.382Z,3.33
2023-05-10T01:34:49.931Z,3.95
2023-05-10T01:38:47.708Z,3.15
2023-05-10T01:42:37.763Z,3.40
2023-05-10T01:46:35.950Z,3.60
2023-05-10T01:50:25.958Z,3.17
2023-05-10T01:54:10.110Z,3.65
2023-05-10T01:57:58.911Z,2.72
2023-05-10T02:01:42.379Z,3.08
2023-05-10T02:05:25.298Z,3.10
2023-05-10T02:09:09.088Z,3.03
2023-05-10T02:12:53.162Z,2.75
2023-05-10T02:16:38.013Z,2.50
2023-05-10T02:20:21.409Z,2.10
2023-05-10T02:24:05.384Z,2.72
2023-05-10T02:27:48.595Z,2.72
2023-05-10T02:31:33.328Z,3.08
2023-05-10T02:35:16.689Z,3.03
2023-05-10T02:39:01.046Z,3.00
2023-05-10T02:42:44.733Z,3.42
2023-05-10T02:46:26.855Z,3.67
2023-05-10T02:50:09.383Z,5.22
2023-05-10T02:53:54.618Z,4.82
2023-05-10T02:57:42.349Z,5.97
2023-05-10T03:01:24.762Z,4.25
2023-05-10T03:05:07.029Z,4.85
2023-05-10T03:08:49.246Z,5.05
2023-05-10T03:13:14.085Z,4.05
2023-05-10T03:17:11.794Z,4.68
2023-05-10T03:21:00.886Z,4.72
2023-05-10T03:24:44.443Z,4.53
2023-05-10T03:28:28.433Z,5.65
2023-05-10T03:32:10.422Z,4.78
2023-05-10T03:35:52.410Z,4.50
2023-05-10T03:39:34.381Z,5.35
2023-05-10T03:43:16.310Z,6.30
2023-05-10T03:46:58.239Z,7.00
2023-05-10T03:50:40.284Z,6.53
2023-05-10T03:54:22.627Z,6.63
2023-05-10T03:58:04.571Z,6.55
2023-05-10T04:01:46.540Z,6.30
2023-05-10T04:05:28.541Z,6.30
2023-05-10T04:09:10.726Z,6.32
2023-05-10T04:12:52.605Z,5.77
2023-05-10T04:16:34.689Z,6.90
2023-05-10T04:20:16.819Z,5.97
2023-05-10T04:23:58.976Z,6.10
2023-05-10T04:27:40.849Z,6.10
2023-05-10T04:31:23.265Z,6.43
2023-05-10T04:35:05.802Z,6.43
2023-05-10T04:38:47.808Z,7.37
2023-05-10T04:42:29.807Z,7.78
2023-05-10T04:46:11.833Z,8.18
2023-05-10T04:49:53.817Z,8.93
2023-05-10T04:53:35.772Z,9.27
2023-05-10T04:57:17.680Z,9.18
2023-05-10T05:05:14.031Z,6.80
2023-05-10T05:09:14.223Z,7.35
2023-05-10T05:12:56.605Z,7.05
2023-05-10T05:16:39.358Z,6.83
2023-05-10T05:20:28.074Z,7.32
2023-05-10T05:24:11.367Z,7.20
2023-05-10T05:27:53.784Z,6.90
2023-05-10T05:31:42.570Z,6.60
2023-05-10T05:35:25.157Z,5.72
2023-05-10T05:39:14.352Z,6.20
2023-05-10T05:42:58.027Z,5.55
2023-05-10T05:46:40.557Z,5.63
2023-05-10T05:54:26.031Z,4.40
2023-05-10T05:58:45.903Z,4.63
2023-05-10T06:06:35.954Z,4.00
2023-05-10T06:10:18.775Z,3.80
2023-05-10T06:14:09.002Z,4.43
2023-05-10T06:17:54.625Z,3.67
2023-05-10T06:21:36.948Z,3.60
2023-05-10T06:25:44.979Z,3.28
2023-05-10T06:29:27.549Z,2.70
2023-05-10T06:33:17.253Z,3.53
2023-05-10T06:37:09.476Z,3.65
2023-05-10T06:46:01.596Z,2.83
2023-05-10T06:49:43.791Z,2.90
2023-05-10T06:53:33.909Z,3.88
2023-05-10T09:19:32.612Z,3.63
2023-05-10T09:33:02.299Z,2.22
2023-05-10T09:37:16.090Z,2.85
2023-05-10T09:45:27.639Z,2.42
2023-05-10T09:53:17.859Z,2.50
2023-05-10T10:26:01.050Z,1.97
2023-05-10T10:30:25.804Z,1.40
2023-05-10T10:48:28.276Z,1.73
2023-05-10T11:26:51.857Z,1.95
2023-05-10T11:44:49.055Z,1.50
2023-05-10T11:49:20.983Z,2.53
2023-05-10T11:53:49.461Z,2.50
2023-05-10T13:13:48.156Z,0.95
2023-05-10T13:22:52.325Z,1.00
2023-05-10T13:27:20.540Z,1.13
2023-05-10T13:44:15.006Z,0.77
2023-05-10T13:53:18.498Z,0.60
2023-05-10T14:11:15.926Z,0.77
2023-05-10T14:19:08.595Z,1.10
2023-05-10T14:27:01.753Z,0.70
2023-05-10T15:07:33.372Z,0.50
2023-05-10T15:40:12.324Z,0.50
2023-05-10T15:44:26.461Z,0.52
2023-05-10T15:48:09.115Z,0.50
2023-05-10T15:56:01.469Z,0.40
2023-05-10T16:00:28.879Z,0.70
2023-05-10T16:41:06.953Z,0.60
2023-05-10T16:53:29.151Z,0.70
2023-05-10T17:06:56.736Z,0.68
2023-05-10T17:23:54.332Z,0.60
2023-05-10T17:32:56.594Z,0.50
2023-05-10T17:45:18.051Z,0.50
2023-05-10T17:53:08.553Z,0.90
2023-05-10T18:02:09.319Z,0.70
2023-05-10T18:15:44.025Z,0.70
2023-05-10T18:28:08.267Z,0.50
2023-05-10T18:35:56.534Z,0.80
2023-05-10T18:43:51.290Z,0.80
2023-05-10T18:53:40.668Z,0.80
2023-05-10T18:57:24.780Z,0.90
2023-05-10T19:16:30.053Z,1.50
2023-05-10T19:42:29.225Z,1.73
2023-05-10T19:50:19.663Z,1.52
2023-05-10T19:54:09.138Z,1.58
2023-05-10T19:57:51.166Z,2.33
2023-05-10T20:01:33.344Z,1.38
2023-05-10T20:05:15.692Z,1.45
2023-05-10T20:08:57.879Z,1.50
2023-05-10T20:12:39.821Z,1.27
2023-05-10T20:16:22.276Z,1.67
2023-05-10T20:20:05.955Z,1.23
2023-05-10T20:23:48.050Z,1.40
2023-05-10T20:27:29.928Z,1.40
2023-05-10T20:31:12.047Z,0.93
2023-05-10T20:34:53.996Z,1.63
2023-05-10T20:38:37.298Z,1.33
2023-05-10T20:42:19.203Z,1.45
2023-05-10T20:46:05.449Z,1.85
2023-05-10T20:49:47.531Z,1.90
2023-05-10T20:53:29.853Z,1.63
2023-05-10T20:57:14.610Z,1.38
2023-05-10T21:00:56.565Z,1.73
2023-05-10T21:04:38.633Z,1.67
2023-05-10T21:08:20.826Z,1.40
2023-05-10T21:12:03.492Z,1.65
2023-05-10T21:15:45.520Z,1.30
2023-05-10T21:19:27.579Z,1.13
2023-05-10T21:23:09.536Z,1.50
2023-05-10T21:26:51.603Z,1.33
2023-05-10T21:30:33.796Z,1.80
2023-05-10T21:34:18.040Z,1.30
2023-05-10T21:38:00.017Z,1.90
2023-05-10T21:41:42.135Z,1.35
2023-05-10T21:45:24.491Z,2.08
2023-05-10T21:49:06.553Z,1.67
2023-05-10T21:52:48.510Z,1.30
2023-05-10T21:56:30.434Z,1.23
2023-05-10T22:00:13.674Z,1.30
2023-05-10T22:03:55.709Z,1.20
2023-05-10T22:07:37.820Z,1.45
2023-05-10T22:11:20.959Z,1.88
2023-05-10T22:18:48.042Z,1.52
2023-05-10T22:22:29.996Z,1.65
2023-05-10T22:26:12.034Z,1.58
2023-05-10T22:29:54.074Z,2.08
2023-05-10T22:33:35.950Z,1.70
2023-05-10T22:37:18.107Z,2.80
2023-05-10T22:41:00.087Z,2.10
2023-05-10T22:44:42.923Z,1.95
2023-05-10T22:48:24.959Z,1.85
2023-05-10T22:52:07.515Z,1.83
2023-05-10T22:55:49.602Z,1.80
2023-05-10T22:59:31.721Z,1.55
2023-05-10T23:03:13.754Z,1.60
2023-05-10T23:06:55.651Z,1.23
2023-05-10T23:10:38.474Z,1.75
2023-05-10T23:14:20.370Z,1.50
2023-05-10T23:18:02.636Z,1.50
2023-05-10T23:21:44.649Z,1.30
2023-05-10T23:25:26.618Z,1.55
2023-05-10T23:29:08.477Z,1.70
2023-05-10T23:32:50.614Z,1.73
2023-05-10T23:36:33.404Z,1.45
2023-05-10T23:40:15.840Z,1.42
2023-05-10T23:43:57.929Z,1.40
2023-05-10T23:47:39.987Z,1.70
2023-05-10T23:51:22.142Z,1.80
2023-05-10T23:55:04.164Z,1.70
2023-05-10T23:58:46.707Z,1.50
